Penryn, Pennsylvania
Current Conditions -  °F | °C
As of 2:53 PM on Friday 28 Nov 2014 (Local Time) from KLNS Reporting Station
Broken Clouds Broken Clouds  
Wind Chill: -4°   Ceiling: 5000
Heat Index:   Visibility: 10mi
Dew Point: -8°   Wind: 15mph
Humidity: 52%   Direction: 300°WNW
Pressure: 30.23"   Gusts: NA
Location:  40.2°N, 76.37°W
Report Text: KLNS 281953Z 30013KT 10SM BKN050 01/M08 A3023 RMK AO2 SLP241 T00111078
Loading
Personal Weather Stations






























Interactive Weather Map New forecast layout! Learn more

10-Day Weather Forecast

Advertisements
Track Severe Weather on mobile